Time;durP1;ratioP1;P1;durP2;ratioP2;P2;SDS_P1;SDS_P2;PMS_P1;PMS_P2;Temp;Humidity;BMP_temperature;BMP_pressure;BME280_temperature;BME280_humidity;BME280_pressure;Samples;Min_cycle;Max_cycle;Signal;HPM_P1;HPM_P2
2023/09/23 00:02:11;;;;;;;14.52;6.95;;;;;;;;;;5158480;27;20040;-72
2023/09/23 00:04:57;;;;;;;16.73;6.78;;;;;;;;;;5157619;27;20098;-72
2023/09/23 00:07:43;;;;;;;18.23;6.45;;;;;;;;;;5158061;27;20416;-73
2023/09/23 00:10:29;;;;;;;18.02;6.95;;;;;;;;;;5159290;27;20083;-72
2023/09/23 00:13:15;;;;;;;16.25;6.45;;;;;;;;;;5158892;27;20015;-72
2023/09/23 00:16:06;;;;;;;17.98;6.90;;;;;;;;;;5168348;27;20102;-72
2023/09/23 00:18:51;;;;;;;15.45;7.00;;;;;;;;;;5157310;27;20019;-73
2023/09/23 00:21:37;;;;;;;12.98;6.90;;;;;;;;;;5156987;27;20023;-72
2023/09/23 00:24:23;;;;;;;16.23;6.63;;;;;;;;;;5157790;27;20026;-74
2023/09/23 00:27:09;;;;;;;13.00;6.55;;;;;;;;;;5157569;27;20051;-72
2023/09/23 00:29:56;;;;;;;12.85;6.47;;;;;;;;;;5157362;27;20079;-72
2023/09/23 00:32:43;;;;;;;11.90;6.13;;;;;;;;;;5159665;27;20037;-72
2023/09/23 00:35:29;;;;;;;12.65;6.47;;;;;;;;;;5161275;27;20107;-72
2023/09/23 00:38:17;;;;;;;15.98;6.55;;;;;;;;;;5160581;27;20023;-73
2023/09/23 00:41:04;;;;;;;15.77;7.10;;;;;;;;;;5161409;27;20023;-72
2023/09/23 00:43:50;;;;;;;17.83;7.15;;;;;;;;;;5158287;27;20030;-73
2023/09/23 00:46:36;;;;;;;12.40;6.85;;;;;;;;;;5165095;27;20034;-73
2023/09/23 00:49:24;;;;;;;14.48;6.82;;;;;;;;;;5177729;27;20375;-73
2023/09/23 00:52:14;;;;;;;15.48;7.35;;;;;;;;;;5194690;27;20021;-71
2023/09/23 00:55:00;;;;;;;14.88;6.82;;;;;;;;;;5205790;27;20101;-72
2023/09/23 00:57:47;;;;;;;13.60;6.65;;;;;;;;;;5203817;27;20424;-72
2023/09/23 01:00:36;;;;;;;12.60;6.68;;;;;;;;;;5188593;27;20414;-73
2023/09/23 01:03:22;;;;;;;14.57;7.07;;;;;;;;;;5201428;27;20102;-72
2023/09/23 01:06:16;;;;;;;13.48;7.45;;;;;;;;;;5198248;27;20014;-72
2023/09/23 01:09:09;;;;;;;12.93;6.50;;;;;;;;;;5185467;27;20010;-71
2023/09/23 01:11:56;;;;;;;18.00;7.38;;;;;;;;;;5185688;27;20101;-72
2023/09/23 01:14:41;;;;;;;13.65;7.15;;;;;;;;;;5200527;27;20028;-73
2023/09/23 01:17:27;;;;;;;14.48;6.75;;;;;;;;;;5209574;27;20351;-74
2023/09/23 01:20:14;;;;;;;14.80;6.90;;;;;;;;;;5210949;27;20010;-72
2023/09/23 01:22:59;;;;;;;13.45;6.35;;;;;;;;;;5200371;27;20017;-72
2023/09/23 01:25:45;;;;;;;10.40;6.35;;;;;;;;;;5199336;27;20025;-72
2023/09/23 01:28:33;;;;;;;12.48;5.93;;;;;;;;;;5203368;27;20045;-72
2023/09/23 01:31:22;;;;;;;13.35;6.07;;;;;;;;;;5207250;27;20054;-72
2023/09/23 01:34:07;;;;;;;13.23;5.95;;;;;;;;;;5205628;27;20053;-72
2023/09/23 01:36:53;;;;;;;10.30;5.82;;;;;;;;;;5204225;27;20022;-72
2023/09/23 01:39:41;;;;;;;11.00;5.63;;;;;;;;;;5204708;27;20018;-71
2023/09/23 01:42:28;;;;;;;8.65;5.50;;;;;;;;;;5210589;27;20022;-72
2023/09/23 01:45:14;;;;;;;10.65;5.15;;;;;;;;;;5203105;27;20018;-71
2023/09/23 01:48:00;;;;;;;8.57;5.60;;;;;;;;;;5188807;27;20025;-71
2023/09/23 01:50:47;;;;;;;17.08;7.18;;;;;;;;;;5203947;27;20042;-71
2023/09/23 01:53:33;;;;;;;14.02;6.70;;;;;;;;;;5198924;27;20022;-71
2023/09/23 01:56:18;;;;;;;15.75;7.13;;;;;;;;;;5198269;27;20076;-71
2023/09/23 01:59:04;;;;;;;12.32;6.70;;;;;;;;;;5198329;27;20097;-71
2023/09/23 02:01:49;;;;;;;14.65;7.68;;;;;;;;;;5185941;27;20324;-72
2023/09/23 02:04:37;;;;;;;13.57;7.40;;;;;;;;;;5197076;27;20109;-72
2023/09/23 02:07:22;;;;;;;18.42;7.32;;;;;;;;;;5197433;27;20017;-71
2023/09/23 02:10:14;;;;;;;22.08;8.05;;;;;;;;;;5197168;27;20112;-71
2023/09/23 02:13:00;;;;;;;16.05;7.70;;;;;;;;;;5197507;27;20105;-70
2023/09/23 02:15:46;;;;;;;18.33;8.07;;;;;;;;;;5184982;27;20022;-71
2023/09/23 02:18:35;;;;;;;14.10;7.47;;;;;;;;;;5202339;27;20018;-71
2023/09/23 02:21:20;;;;;;;17.35;7.57;;;;;;;;;;5211688;27;20018;-71
2023/09/23 02:24:06;;;;;;;16.70;7.93;;;;;;;;;;5208703;27;20313;-72
2023/09/23 02:26:51;;;;;;;17.98;8.25;;;;;;;;;;5201249;27;20010;-71
2023/09/23 02:29:38;;;;;;;13.85;7.70;;;;;;;;;;5200022;27;20021;-71
2023/09/23 02:32:24;;;;;;;17.35;8.30;;;;;;;;;;5196766;27;20400;-70
2023/09/23 02:35:13;;;;;;;19.75;9.07;;;;;;;;;;5182866;27;20017;-71
2023/09/23 02:37:59;;;;;;;16.45;7.97;;;;;;;;;;5196983;27;20022;-71
2023/09/23 02:40:46;;;;;;;17.17;8.13;;;;;;;;;;5196611;27;20018;-71
2023/09/23 02:43:31;;;;;;;18.58;7.88;;;;;;;;;;5198309;27;20049;-71
2023/09/23 02:46:17;;;;;;;14.25;7.60;;;;;;;;;;5201368;27;20014;-70
2023/09/23 02:49:02;;;;;;;18.20;7.88;;;;;;;;;;5200743;27;20563;-71
2023/09/23 02:51:49;;;;;;;15.60;8.15;;;;;;;;;;5200775;27;20021;-71
2023/09/23 02:54:34;;;;;;;17.17;7.90;;;;;;;;;;5200799;27;20108;-72
2023/09/23 02:57:20;;;;;;;16.25;8.20;;;;;;;;;;5200525;27;20018;-71
2023/09/23 03:00:16;;;;;;;14.25;7.72;;;;;;;;;;5201028;27;20026;-72
2023/09/23 03:03:08;;;;;;;14.98;7.80;;;;;;;;;;5199596;27;20442;-71
2023/09/23 03:05:57;;;;;;;16.33;7.95;;;;;;;;;;5184996;27;20014;-71
2023/09/23 03:08:47;;;;;;;71.00;15.63;;;;;;;;;;5200427;27;20073;-71
2023/09/23 03:11:38;;;;;;;24.50;8.13;;;;;;;;;;5185555;27;20025;-71
2023/09/23 03:14:38;;;;;;;13.65;7.72;;;;;;;;;;5201291;27;20022;-70
2023/09/23 03:17:24;;;;;;;12.65;7.30;;;;;;;;;;5199877;27;20113;-71
2023/09/23 03:20:10;;;;;;;14.68;7.18;;;;;;;;;;5200083;27;20024;-72
2023/09/23 03:22:57;;;;;;;16.60;7.70;;;;;;;;;;5200202;27;20514;-71
2023/09/23 03:25:43;;;;;;;13.73;7.50;;;;;;;;;;5199487;27;20050;-71
2023/09/23 03:28:29;;;;;;;15.40;7.95;;;;;;;;;;5200591;27;20095;-70
2023/09/23 03:31:14;;;;;;;22.35;8.63;;;;;;;;;;5199891;27;20077;-71
2023/09/23 03:34:03;;;;;;;18.23;8.95;;;;;;;;;;5199721;27;20032;-71
2023/09/23 03:36:51;;;;;;;58.17;12.68;;;;;;;;;;5199661;27;20090;-70
2023/09/23 03:39:37;;;;;;;16.65;9.15;;;;;;;;;;5199106;27;20029;-70
2023/09/23 03:42:22;;;;;;;46.95;16.92;;;;;;;;;;5199534;27;20392;-70
2023/09/23 03:45:10;;;;;;;41.00;13.88;;;;;;;;;;5199937;27;20038;-70
2023/09/23 03:47:56;;;;;;;223.80;41.13;;;;;;;;;;5199169;27;20041;-70
2023/09/23 03:50:42;;;;;;;31.30;13.05;;;;;;;;;;5184824;27;20041;-70
2023/09/23 03:53:28;;;;;;;490.85;90.40;;;;;;;;;;5198662;27;20036;-70
2023/09/23 03:56:13;;;;;;;186.13;35.22;;;;;;;;;;5184035;27;20094;-70
2023/09/23 03:58:59;;;;;;;203.50;54.22;;;;;;;;;;5199622;27;20032;-70
2023/09/23 04:01:45;;;;;;;99.78;27.83;;;;;;;;;;5198416;27;20443;-70
2023/09/23 04:04:31;;;;;;;25.33;11.07;;;;;;;;;;5199393;27;20408;-70
2023/09/23 04:07:17;;;;;;;304.05;67.60;;;;;;;;;;5199228;27;20100;-70
2023/09/23 04:10:03;;;;;;;96.20;21.67;;;;;;;;;;5198259;27;20025;-70
2023/09/23 04:12:49;;;;;;;126.38;32.22;;;;;;;;;;5168950;27;20033;-70
2023/09/23 04:15:35;;;;;;;58.15;17.42;;;;;;;;;;5198974;27;20109;-70
2023/09/23 04:18:20;;;;;;;151.68;40.92;;;;;;;;;;5199314;27;20055;-71
2023/09/23 04:21:06;;;;;;;57.65;16.20;;;;;;;;;;5183154;27;20105;-70
2023/09/23 04:23:55;;;;;;;197.93;59.88;;;;;;;;;;5198472;27;20332;-71
2023/09/23 04:26:40;;;;;;;86.82;28.33;;;;;;;;;;5184663;27;20017;-70
2023/09/23 04:29:28;;;;;;;70.75;20.80;;;;;;;;;;5198522;27;20022;-70
2023/09/23 04:32:14;;;;;;;16.45;9.25;;;;;;;;;;5198754;27;20089;-70
2023/09/23 04:34:59;;;;;;;25.58;11.57;;;;;;;;;;5198621;27;20014;-69
2023/09/23 04:37:45;;;;;;;90.60;30.58;;;;;;;;;;5197758;27;20014;-70
2023/09/23 04:40:31;;;;;;;27.80;11.68;;;;;;;;;;5198492;27;20014;-70
2023/09/23 04:43:16;;;;;;;79.03;21.23;;;;;;;;;;5198552;27;20030;-71
2023/09/23 04:46:02;;;;;;;318.50;68.65;;;;;;;;;;5197830;27;20443;-70
2023/09/23 04:48:48;;;;;;;76.97;22.08;;;;;;;;;;5184032;27;20359;-71
2023/09/23 04:51:33;;;;;;;28.88;12.38;;;;;;;;;;5198352;27;20022;-70
2023/09/23 04:54:20;;;;;;;35.08;12.57;;;;;;;;;;5198266;27;20407;-71
2023/09/23 04:57:09;;;;;;;14.00;8.98;;;;;;;;;;5198432;27;20021;-70
2023/09/23 04:59:56;;;;;;;15.52;9.30;;;;;;;;;;5197763;27;20105;-71
2023/09/23 05:02:42;;;;;;;86.43;21.90;;;;;;;;;;5198968;27;20362;-70
2023/09/23 05:05:27;;;;;;;25.63;10.82;;;;;;;;;;5197651;27;20442;-70
2023/09/23 05:08:13;;;;;;;34.30;11.68;;;;;;;;;;5198115;27;20028;-70
2023/09/23 05:11:00;;;;;;;17.83;8.48;;;;;;;;;;5197998;27;20384;-70
2023/09/23 05:13:46;;;;;;;22.17;10.48;;;;;;;;;;5197792;27;20022;-70
2023/09/23 05:16:31;;;;;;;19.95;9.85;;;;;;;;;;5197816;27;20022;-70
2023/09/23 05:19:19;;;;;;;17.98;8.27;;;;;;;;;;5197287;27;20202;-71
2023/09/23 05:22:05;;;;;;;15.85;9.18;;;;;;;;;;5197635;27;20033;-70
2023/09/23 05:24:56;;;;;;;36.83;13.02;;;;;;;;;;5182386;27;20060;-70
2023/09/23 05:27:45;;;;;;;54.80;17.08;;;;;;;;;;5197516;27;20018;-71
2023/09/23 05:30:30;;;;;;;68.32;22.58;;;;;;;;;;5197799;27;20017;-70
2023/09/23 05:33:16;;;;;;;19.38;10.57;;;;;;;;;;5182625;27;20018;-70
2023/09/23 05:36:03;;;;;;;64.50;17.10;;;;;;;;;;5198048;27;20022;-70
2023/09/23 05:38:49;;;;;;;25.52;12.50;;;;;;;;;;5196709;27;20457;-71
2023/09/23 05:41:34;;;;;;;357.13;106.70;;;;;;;;;;5197251;27;20074;-70
2023/09/23 05:44:20;;;;;;;161.13;39.65;;;;;;;;;;5197240;27;20014;-71
2023/09/23 05:47:06;;;;;;;201.75;52.28;;;;;;;;;;5182421;27;20010;-70
2023/09/23 05:49:51;;;;;;;37.33;13.27;;;;;;;;;;5196582;27;20404;-70
2023/09/23 05:52:37;;;;;;;22.40;12.40;;;;;;;;;;5197644;27;20427;-70
2023/09/23 05:55:24;;;;;;;165.05;52.97;;;;;;;;;;5199565;27;20050;-69
2023/09/23 05:58:09;;;;;;;265.73;59.45;;;;;;;;;;5197822;27;20469;-70
2023/09/23 06:00:55;;;;;;;65.88;24.08;;;;;;;;;;5196965;27;20029;-70
2023/09/23 06:03:41;;;;;;;28.48;12.27;;;;;;;;;;5182429;27;20462;-70
2023/09/23 06:06:26;;;;;;;64.57;20.30;;;;;;;;;;5196250;27;20018;-70
2023/09/23 06:09:12;;;;;;;90.05;22.88;;;;;;;;;;5182601;27;20118;-70
2023/09/23 06:11:57;;;;;;;104.88;26.52;;;;;;;;;;5196617;27;20468;-72
2023/09/23 06:14:43;;;;;;;19.85;10.85;;;;;;;;;;5182962;27;20039;-72
2023/09/23 06:17:29;;;;;;;23.23;11.05;;;;;;;;;;5196011;27;20014;-71
2023/09/23 06:20:15;;;;;;;17.27;11.15;;;;;;;;;;5196688;27;20488;-71
2023/09/23 06:23:00;;;;;;;29.08;10.73;;;;;;;;;;5197494;27;20030;-71
2023/09/23 06:25:51;;;;;;;15.32;9.65;;;;;;;;;;5189249;27;20447;-70
2023/09/23 06:28:37;;;;;;;18.15;9.82;;;;;;;;;;5182677;27;20063;-71
2023/09/23 06:31:23;;;;;;;52.83;18.33;;;;;;;;;;5196793;27;20014;-72
2023/09/23 06:34:08;;;;;;;166.57;38.30;;;;;;;;;;5196759;27;20045;-71
2023/09/23 06:36:54;;;;;;;20.13;11.13;;;;;;;;;;5196863;27;20018;-71
2023/09/23 06:39:40;;;;;;;50.90;17.23;;;;;;;;;;5197422;27;20401;-71
2023/09/23 06:42:26;;;;;;;26.38;12.13;;;;;;;;;;5196437;27;20477;-70
2023/09/23 06:45:12;;;;;;;24.98;11.38;;;;;;;;;;5196675;27;20449;-70
2023/09/23 06:47:57;;;;;;;53.88;17.25;;;;;;;;;;5196088;27;20018;-70
2023/09/23 06:50:43;;;;;;;168.23;41.72;;;;;;;;;;5196130;27;20121;-70
2023/09/23 06:53:29;;;;;;;42.55;14.98;;;;;;;;;;5195534;27;20102;-70
2023/09/23 06:56:15;;;;;;;29.25;12.20;;;;;;;;;;5196395;27;20523;-71
2023/09/23 06:59:01;;;;;;;64.57;22.35;;;;;;;;;;5196025;27;20061;-72
2023/09/23 07:01:46;;;;;;;312.20;69.22;;;;;;;;;;5180523;27;20032;-72
2023/09/23 07:04:32;;;;;;;15.20;9.38;;;;;;;;;;5196477;27;20033;-71
2023/09/23 07:07:17;;;;;;;18.10;10.07;;;;;;;;;;5196619;27;20029;-71
2023/09/23 07:10:04;;;;;;;228.38;37.53;;;;;;;;;;5195992;27;20014;-70
2023/09/23 07:12:49;;;;;;;59.13;16.13;;;;;;;;;;5195858;27;20025;-71
2023/09/23 07:15:39;;;;;;;12.88;7.80;;;;;;;;;;5196354;27;20092;-71
2023/09/23 07:18:24;;;;;;;15.88;7.65;;;;;;;;;;5197676;27;20017;-70
2023/09/23 07:21:10;;;;;;;14.95;7.10;;;;;;;;;;5195804;27;20017;-71
2023/09/23 07:23:56;;;;;;;12.43;7.32;;;;;;;;;;5196013;27;20465;-71
2023/09/23 07:26:42;;;;;;;15.73;7.78;;;;;;;;;;5196186;27;20443;-71
2023/09/23 07:29:27;;;;;;;20.38;8.32;;;;;;;;;;5198227;27;20090;-71
2023/09/23 07:32:13;;;;;;;12.43;7.30;;;;;;;;;;5185951;27;20015;-71
2023/09/23 07:34:59;;;;;;;14.88;8.32;;;;;;;;;;5199863;27;20029;-71
2023/09/23 07:37:44;;;;;;;15.18;7.47;;;;;;;;;;5199822;27;20018;-71
2023/09/23 07:40:30;;;;;;;15.50;7.95;;;;;;;;;;5185361;27;20089;-71
2023/09/23 07:43:16;;;;;;;13.93;7.72;;;;;;;;;;5199905;27;20026;-71
2023/09/23 07:46:01;;;;;;;15.25;7.88;;;;;;;;;;5200088;27;20101;-71
2023/09/23 07:48:47;;;;;;;14.90;7.47;;;;;;;;;;5201588;27;20014;-70
2023/09/23 07:51:33;;;;;;;20.88;9.88;;;;;;;;;;5184798;27;20041;-72
2023/09/23 07:54:19;;;;;;;14.55;7.57;;;;;;;;;;5199338;27;20074;-71
2023/09/23 07:57:05;;;;;;;21.80;10.73;;;;;;;;;;5199259;27;20016;-71
2023/09/23 07:59:51;;;;;;;14.50;7.00;;;;;;;;;;5199611;27;20017;-72
2023/09/23 08:02:36;;;;;;;14.63;7.05;;;;;;;;;;5199569;27;20026;-70
2023/09/23 08:05:23;;;;;;;14.38;7.32;;;;;;;;;;5199530;27;20014;-71
2023/09/23 08:08:10;;;;;;;60.47;24.05;;;;;;;;;;5184435;27;20041;-71
2023/09/23 08:10:55;;;;;;;62.85;26.42;;;;;;;;;;5200148;27;20033;-71
2023/09/23 08:13:41;;;;;;;15.35;7.90;;;;;;;;;;5198783;27;20109;-73
2023/09/23 08:16:27;;;;;;;178.27;87.07;;;;;;;;;;5185171;27;20057;-75
2023/09/23 08:19:13;;;;;;;33.78;18.25;;;;;;;;;;5183448;27;20014;-74
2023/09/23 08:21:59;;;;;;;15.63;6.60;;;;;;;;;;5183760;27;20028;-73
2023/09/23 08:24:44;;;;;;;39.47;16.05;;;;;;;;;;5184946;27;20037;-74
2023/09/23 08:27:31;;;;;;;13.00;6.53;;;;;;;;;;5198733;27;20017;-75
2023/09/23 08:30:17;;;;;;;110.72;35.90;;;;;;;;;;5183443;27;20025;-74
2023/09/23 08:33:02;;;;;;;42.95;10.73;;;;;;;;;;5198769;27;20087;-74
2023/09/23 08:35:48;;;;;;;116.93;21.27;;;;;;;;;;5184160;27;20018;-74
2023/09/23 08:38:34;;;;;;;33.90;9.82;;;;;;;;;;5198839;27;20446;-75
2023/09/23 08:41:21;;;;;;;13.90;6.38;;;;;;;;;;5182632;27;20058;-74
2023/09/23 08:44:07;;;;;;;14.07;6.07;;;;;;;;;;5199129;27;20029;-74
2023/09/23 08:46:52;;;;;;;10.90;5.88;;;;;;;;;;5199101;27;20026;-74
2023/09/23 08:49:38;;;;;;;15.77;6.03;;;;;;;;;;5198902;27;20038;-74
2023/09/23 08:52:25;;;;;;;16.63;6.75;;;;;;;;;;5199927;27;20022;-74
2023/09/23 08:55:10;;;;;;;14.15;5.88;;;;;;;;;;5198494;27;20029;-74
2023/09/23 08:58:01;;;;;;;15.48;5.88;;;;;;;;;;5198526;27;20017;-75
2023/09/23 09:00:47;;;;;;;16.23;6.30;;;;;;;;;;5197809;27;20014;-73
2023/09/23 09:03:33;;;;;;;13.27;5.75;;;;;;;;;;5198049;27;20022;-74
2023/09/23 09:06:19;;;;;;;11.05;6.38;;;;;;;;;;5198926;27;20044;-74
2023/09/23 09:09:05;;;;;;;18.52;6.65;;;;;;;;;;5198863;27;20022;-73
2023/09/23 09:11:53;;;;;;;13.73;6.43;;;;;;;;;;5198049;27;20021;-73
2023/09/23 09:14:39;;;;;;;12.88;6.28;;;;;;;;;;5197234;27;20354;-74
2023/09/23 09:17:25;;;;;;;15.23;6.28;;;;;;;;;;5197983;27;20435;-74
2023/09/23 09:20:12;;;;;;;16.05;6.30;;;;;;;;;;5197811;27;20083;-74
2023/09/23 09:22:58;;;;;;;14.85;6.10;;;;;;;;;;5182325;27;20082;-73
2023/09/23 09:25:47;;;;;;;16.27;6.18;;;;;;;;;;5182905;27;20014;-75
2023/09/23 09:28:33;;;;;;;19.55;6.40;;;;;;;;;;5198532;27;20145;-73
2023/09/23 09:31:18;;;;;;;14.88;6.43;;;;;;;;;;5184524;27;20507;-74
2023/09/23 09:34:09;;;;;;;15.10;6.38;;;;;;;;;;5198475;27;20443;-76
2023/09/23 09:36:58;;;;;;;12.13;5.55;;;;;;;;;;5182230;27;20450;-75
2023/09/23 09:39:51;;;;;;;11.15;5.80;;;;;;;;;;5197617;27;20025;-76
2023/09/23 09:42:39;;;;;;;11.68;5.65;;;;;;;;;;5181791;27;20029;-74
2023/09/23 09:45:26;;;;;;;14.98;6.13;;;;;;;;;;5197609;27;20082;-74
2023/09/23 09:48:12;;;;;;;12.38;5.70;;;;;;;;;;5198377;27;20028;-74
2023/09/23 09:50:58;;;;;;;12.65;5.90;;;;;;;;;;5197557;27;20145;-75
2023/09/23 09:53:44;;;;;;;11.15;5.68;;;;;;;;;;5200110;27;20040;-74
2023/09/23 09:56:32;;;;;;;13.73;6.25;;;;;;;;;;5188658;27;20017;-74
2023/09/23 09:59:26;;;;;;;17.25;5.88;;;;;;;;;;5183238;27;20085;-75
2023/09/23 10:02:12;;;;;;;10.95;6.15;;;;;;;;;;5197541;27;20025;-74
2023/09/23 10:05:01;;;;;;;15.35;6.28;;;;;;;;;;5197400;27;20058;-74
2023/09/23 10:07:57;;;;;;;12.10;5.55;;;;;;;;;;5197360;27;20025;-73
2023/09/23 10:10:44;;;;;;;13.98;6.18;;;;;;;;;;5182255;27;20423;-74
2023/09/23 10:13:33;;;;;;;12.50;5.70;;;;;;;;;;5197007;27;20034;-75
2023/09/23 10:16:19;;;;;;;10.43;5.80;;;;;;;;;;5197307;27;20022;-76
2023/09/23 10:19:09;;;;;;;15.43;5.90;;;;;;;;;;5198762;27;20026;-74
2023/09/23 10:22:08;;;;;;;11.15;5.82;;;;;;;;;;5196985;27;20022;-74
2023/09/23 10:24:58;;;;;;;10.98;5.68;;;;;;;;;;5196684;27;20435;-73
2023/09/23 10:27:56;;;;;;;12.93;5.55;;;;;;;;;;5197559;27;20450;-74
2023/09/23 10:30:42;;;;;;;10.48;6.00;;;;;;;;;;5196126;27;20043;-75
2023/09/23 10:33:28;;;;;;;12.57;5.90;;;;;;;;;;5196902;27;20030;-75
2023/09/23 10:36:18;;;;;;;13.82;5.90;;;;;;;;;;5196813;27;20114;-75
2023/09/23 10:39:06;;;;;;;16.15;5.63;;;;;;;;;;5181424;27;20021;-75
2023/09/23 10:41:51;;;;;;;12.27;5.63;;;;;;;;;;5197312;27;20430;-75
2023/09/23 10:44:37;;;;;;;10.30;5.25;;;;;;;;;;5197427;27;20026;-75
2023/09/23 10:47:23;;;;;;;19.40;5.80;;;;;;;;;;5196578;27;20025;-75
2023/09/23 10:50:08;;;;;;;10.10;5.25;;;;;;;;;;5196554;27;20070;-76
2023/09/23 10:52:54;;;;;;;14.13;5.70;;;;;;;;;;5197014;27;20029;-76
2023/09/23 10:55:40;;;;;;;13.70;5.50;;;;;;;;;;5181911;27;20049;-74
2023/09/23 10:58:31;;;;;;;9.98;4.90;;;;;;;;;;5182506;27;20042;-75
2023/09/23 11:01:18;;;;;;;15.23;5.50;;;;;;;;;;5196465;27;20026;-75
2023/09/23 11:04:06;;;;;;;14.05;5.68;;;;;;;;;;5184933;27;20025;-75
2023/09/23 11:06:52;;;;;;;11.13;5.20;;;;;;;;;;5204287;27;20362;-74
2023/09/23 11:09:38;;;;;;;11.18;5.15;;;;;;;;;;5189992;27;20018;-75
2023/09/23 11:12:27;;;;;;;15.07;5.82;;;;;;;;;;5200984;27;20442;-75
2023/09/23 11:15:13;;;;;;;14.75;5.65;;;;;;;;;;5185877;27;20037;-75
2023/09/23 11:17:59;;;;;;;11.73;5.00;;;;;;;;;;5184993;27;20017;-75
2023/09/23 11:20:45;;;;;;;11.32;5.32;;;;;;;;;;5200708;27;20439;-75
2023/09/23 11:23:32;;;;;;;11.02;4.82;;;;;;;;;;5200595;27;20022;-73
2023/09/23 11:26:18;;;;;;;12.75;5.15;;;;;;;;;;5200711;27;20027;-75
2023/09/23 11:29:03;;;;;;;9.52;5.03;;;;;;;;;;5201090;27;20335;-74
2023/09/23 11:31:49;;;;;;;10.45;5.82;;;;;;;;;;5199716;27;20100;-74
2023/09/23 11:34:36;;;;;;;12.20;4.80;;;;;;;;;;5199639;27;20024;-75
2023/09/23 11:37:24;;;;;;;11.07;5.22;;;;;;;;;;5185945;27;20018;-75
2023/09/23 11:40:12;;;;;;;13.27;5.57;;;;;;;;;;5199660;27;20352;-75
2023/09/23 11:42:58;;;;;;;14.70;5.80;;;;;;;;;;5184802;27;20089;-75
2023/09/23 11:45:43;;;;;;;13.60;5.10;;;;;;;;;;5185562;27;20017;-74
2023/09/23 11:48:29;;;;;;;18.38;5.32;;;;;;;;;;5199445;27;20032;-75
2023/09/23 11:51:17;;;;;;;13.02;5.47;;;;;;;;;;5185486;27;20033;-74
2023/09/23 11:54:03;;;;;;;12.43;4.95;;;;;;;;;;5199242;27;20022;-75
2023/09/23 11:56:49;;;;;;;17.02;6.13;;;;;;;;;;5199050;27;20021;-75
2023/09/23 11:59:35;;;;;;;11.30;4.80;;;;;;;;;;5199191;27;20024;-75
2023/09/23 12:02:21;;;;;;;7.38;4.93;;;;;;;;;;5199396;27;20030;-75
2023/09/23 12:05:08;;;;;;;11.70;5.35;;;;;;;;;;5199034;27;20488;-75
2023/09/23 12:07:55;;;;;;;14.95;5.03;;;;;;;;;;5198762;27;20051;-75
2023/09/23 12:10:40;;;;;;;13.70;5.57;;;;;;;;;;5199077;27;20018;-74
2023/09/23 12:13:26;;;;;;;14.48;5.57;;;;;;;;;;5198873;27;20014;-75
2023/09/23 12:16:12;;;;;;;11.50;5.22;;;;;;;;;;5198366;27;20045;-76
2023/09/23 12:18:58;;;;;;;9.90;4.88;;;;;;;;;;5199083;27;20022;-74
2023/09/23 12:21:44;;;;;;;15.40;4.95;;;;;;;;;;5198764;27;20018;-75
2023/09/23 12:24:29;;;;;;;12.65;4.63;;;;;;;;;;5198218;27;20048;-75
2023/09/23 12:27:15;;;;;;;12.93;4.90;;;;;;;;;;5199579;27;20113;-75
2023/09/23 12:30:01;;;;;;;15.43;5.03;;;;;;;;;;5198695;27;20013;-75
2023/09/23 12:32:46;;;;;;;12.50;5.18;;;;;;;;;;5184179;27;20479;-73
2023/09/23 12:35:32;;;;;;;18.20;5.35;;;;;;;;;;5198798;27;20028;-74
2023/09/23 12:38:18;;;;;;;15.40;5.22;;;;;;;;;;5198655;27;20074;-74
2023/09/23 12:41:03;;;;;;;13.40;4.82;;;;;;;;;;5198054;27;20068;-75
2023/09/23 12:43:49;;;;;;;19.02;5.22;;;;;;;;;;5198549;27;20014;-75
2023/09/23 12:46:34;;;;;;;18.10;5.75;;;;;;;;;;5198478;27;20014;-75
2023/09/23 12:49:20;;;;;;;13.27;5.03;;;;;;;;;;5198262;27;20064;-74
2023/09/23 12:52:06;;;;;;;17.65;5.20;;;;;;;;;;5198518;27;20014;-75
2023/09/23 12:54:51;;;;;;;15.13;5.72;;;;;;;;;;5198179;27;20050;-75
2023/09/23 12:57:37;;;;;;;15.23;4.72;;;;;;;;;;5197901;27;20064;-75
2023/09/23 13:00:23;;;;;;;18.73;4.80;;;;;;;;;;5198547;27;20443;-76
2023/09/23 13:03:10;;;;;;;14.80;4.75;;;;;;;;;;5197916;27;20121;-74
2023/09/23 13:05:56;;;;;;;12.43;4.63;;;;;;;;;;5197671;27;20022;-75
2023/09/23 13:08:43;;;;;;;17.90;5.25;;;;;;;;;;5200856;27;20095;-74
2023/09/23 13:11:29;;;;;;;12.85;4.88;;;;;;;;;;5204036;27;20018;-75
2023/09/23 13:14:16;;;;;;;13.52;4.95;;;;;;;;;;5185209;27;20457;-75
2023/09/23 13:17:02;;;;;;;16.23;5.07;;;;;;;;;;5197948;27;20060;-74
2023/09/23 13:19:48;;;;;;;15.60;5.38;;;;;;;;;;5198153;27;20022;-76
2023/09/23 13:22:34;;;;;;;17.95;5.10;;;;;;;;;;5197416;27;20332;-75
2023/09/23 13:25:20;;;;;;;14.80;5.13;;;;;;;;;;5198211;27;20070;-76
2023/09/23 13:28:06;;;;;;;15.93;5.20;;;;;;;;;;5197752;27;20105;-76
2023/09/23 13:30:52;;;;;;;14.40;4.72;;;;;;;;;;5198054;27;20392;-75
2023/09/23 13:33:37;;;;;;;14.00;4.95;;;;;;;;;;5184050;27;20053;-74
2023/09/23 13:36:23;;;;;;;20.88;4.53;;;;;;;;;;5200492;27;20435;-74
2023/09/23 13:39:09;;;;;;;18.48;4.78;;;;;;;;;;5197449;27;20022;-75
2023/09/23 13:41:55;;;;;;;20.35;5.07;;;;;;;;;;5182283;27;20478;-75
2023/09/23 13:44:40;;;;;;;21.13;5.53;;;;;;;;;;5197692;27;20026;-74
2023/09/23 13:47:27;;;;;;;18.85;4.88;;;;;;;;;;5183400;27;20109;-75
2023/09/23 13:50:12;;;;;;;23.42;5.38;;;;;;;;;;5183419;27;20133;-75
2023/09/23 13:52:58;;;;;;;19.35;4.80;;;;;;;;;;5196969;27;20026;-75
2023/09/23 13:55:43;;;;;;;16.58;5.28;;;;;;;;;;5198169;27;20033;-74
2023/09/23 13:58:29;;;;;;;15.32;4.78;;;;;;;;;;5182910;27;20100;-74
2023/09/23 14:01:15;;;;;;;18.85;5.20;;;;;;;;;;5197611;27;20032;-75
2023/09/23 14:04:00;;;;;;;16.00;4.72;;;;;;;;;;5197035;27;20017;-75
2023/09/23 14:06:46;;;;;;;22.85;5.68;;;;;;;;;;5199141;27;20098;-76
2023/09/23 14:09:31;;;;;;;20.42;4.72;;;;;;;;;;5201737;27;20032;-75
2023/09/23 14:12:17;;;;;;;21.63;4.85;;;;;;;;;;5196834;27;20100;-75
2023/09/23 14:15:03;;;;;;;22.23;5.43;;;;;;;;;;5182205;27;20018;-75
2023/09/23 14:17:49;;;;;;;20.48;4.57;;;;;;;;;;5197156;27;20028;-75
2023/09/23 14:20:34;;;;;;;12.85;4.10;;;;;;;;;;5196396;27;20026;-76
2023/09/23 14:23:20;;;;;;;22.38;5.47;;;;;;;;;;5180688;27;20025;-76
2023/09/23 14:26:06;;;;;;;23.15;5.10;;;;;;;;;;5181878;27;20499;-74
2023/09/23 14:28:52;;;;;;;19.15;5.30;;;;;;;;;;5197426;27;20351;-74
2023/09/23 14:31:37;;;;;;;22.13;5.57;;;;;;;;;;5196602;27;20032;-74
2023/09/23 14:34:23;;;;;;;20.67;4.97;;;;;;;;;;5197113;27;20017;-75
2023/09/23 14:37:08;;;;;;;19.00;5.65;;;;;;;;;;5196072;27;20018;-74
2023/09/23 14:39:54;;;;;;;16.45;5.65;;;;;;;;;;5199980;27;20032;-75
2023/09/23 14:42:40;;;;;;;17.75;4.95;;;;;;;;;;5201096;27;20087;-77
2023/09/23 14:45:25;;;;;;;21.27;5.68;;;;;;;;;;5201702;27;20017;-76
2023/09/23 14:48:11;;;;;;;22.05;6.13;;;;;;;;;;5187079;27;20431;-76
2023/09/23 14:50:56;;;;;;;22.05;5.90;;;;;;;;;;5200279;27;20081;-75
2023/09/23 14:53:42;;;;;;;22.45;5.95;;;;;;;;;;5200473;27;20161;-76
2023/09/23 14:56:28;;;;;;;19.80;5.18;;;;;;;;;;5184763;27;20044;-75
2023/09/23 14:59:13;;;;;;;28.52;5.97;;;;;;;;;;5200052;27;20018;-74
2023/09/23 15:01:59;;;;;;;21.40;5.28;;;;;;;;;;5200455;27;20018;-75
2023/09/23 15:04:44;;;;;;;20.88;5.30;;;;;;;;;;5200408;27;20035;-75
2023/09/23 15:07:30;;;;;;;26.13;7.72;;;;;;;;;;5200925;27;20026;-74
2023/09/23 15:10:15;;;;;;;48.28;22.40;;;;;;;;;;5186814;27;20041;-75
2023/09/23 15:13:01;;;;;;;17.35;5.65;;;;;;;;;;5200338;27;20054;-75
2023/09/23 15:15:47;;;;;;;19.33;5.00;;;;;;;;;;5200146;27;20026;-74
2023/09/23 15:18:32;;;;;;;19.17;5.35;;;;;;;;;;5199638;27;20378;-74
2023/09/23 15:21:18;;;;;;;17.58;5.30;;;;;;;;;;5200111;27;20021;-74
2023/09/23 15:24:04;;;;;;;14.98;5.57;;;;;;;;;;5185879;27;20094;-75
2023/09/23 15:26:49;;;;;;;17.17;5.63;;;;;;;;;;5185185;27;20025;-74
2023/09/23 15:29:35;;;;;;;23.98;5.18;;;;;;;;;;5199987;27;20077;-75
2023/09/23 15:32:20;;;;;;;22.33;5.18;;;;;;;;;;5199559;27;20005;-75
2023/09/23 15:35:06;;;;;;;19.48;5.80;;;;;;;;;;5199562;27;20454;-75
2023/09/23 15:37:52;;;;;;;24.00;5.97;;;;;;;;;;5200970;27;20052;-76
2023/09/23 15:40:38;;;;;;;20.83;4.97;;;;;;;;;;5185362;27;20033;-75
2023/09/23 15:43:24;;;;;;;13.43;4.93;;;;;;;;;;5199414;27;20399;-75
2023/09/23 15:46:10;;;;;;;19.55;5.43;;;;;;;;;;5200098;27;20018;-76
2023/09/23 15:48:55;;;;;;;21.25;5.55;;;;;;;;;;5183646;27;20047;-76
2023/09/23 15:51:41;;;;;;;16.75;5.15;;;;;;;;;;5184505;27;20029;-75
2023/09/23 15:54:26;;;;;;;18.33;6.03;;;;;;;;;;5184195;27;20018;-75
2023/09/23 15:57:12;;;;;;;15.35;5.05;;;;;;;;;;5199780;27;20028;-75
2023/09/23 15:59:58;;;;;;;20.38;5.45;;;;;;;;;;5199890;27;20025;-74
2023/09/23 16:02:43;;;;;;;22.50;5.70;;;;;;;;;;5183837;27;20074;-76
2023/09/23 16:05:29;;;;;;;19.70;5.32;;;;;;;;;;5199492;27;20045;-75
2023/09/23 16:08:15;;;;;;;20.10;5.40;;;;;;;;;;5199386;27;20022;-76
2023/09/23 16:11:00;;;;;;;18.65;5.60;;;;;;;;;;5184929;27;20102;-74
2023/09/23 16:13:46;;;;;;;18.02;6.13;;;;;;;;;;5200865;27;20471;-74
2023/09/23 16:16:32;;;;;;;14.55;5.40;;;;;;;;;;5201857;27;20040;-76
2023/09/23 16:19:17;;;;;;;28.02;9.05;;;;;;;;;;5187346;27;20018;-74